Portada
METAR-TAF:

METAR-TAF

Aeropuertos :

Curazao, Antillas Neerlandesas

Aeropuerto Internacional Hato

latitud: 12-12N, longitud: 068-58W, altitud: 9 m

Observación

El informe se hizo hace 19 minutos, a las 08:00 UTC
Viento 12 kt del este
Temperatura 24°C
Humedad 74%
Presión 1014 hPa
Visibilidad 10 km o más
Cielo nuboso a una altura de 4900 ft

METAR: TNCC 240800Z 09012KT 9999 BKN049 24/19 Q1014 NOSIG

Hora: 04:19 (08:19 UTC)

Pronóstico

El informe se hizo hace 4 horas y 19 minutos, a las 04:00 UTC
Pronóstico válido del 24 a las 06 UTC al 25 a las 06 UTC
Viento 11 kt del este
Visibilidad 10 km o más
Nubes dispersas a una altura de 2000 ft
Temporalmente
del 24 a las 06 UTC al 25 a las 06 UTC
Visibilidad: 7000 m
Cielo nuboso a una altura de 1500 ft
chaparrones de lluvia

TAF: TNCC 240400Z 2406/2506 09011KT 9999 SCT020 TEMPO 2406/2506 7000 SHRA BKN015

Observaciones y pronósticos meteorológicos de más de 4000 aeropuertos (mensajes METAR y TAF).

Los puntos amarillos y rojos representan las estaciones disponibles.

Ponga el ratón en el punto deseado para ver el nombre de la estación.

Haga clic para ver las observaciones y los pronósticos meteorológicos.

Para cambiar el mapa : haga clic en los botones verdes con una cruz de color negro para hacer un zoom, en el botón verde con un guión para alejar o en las flechas verdes para mapas adyacentes.


METAR-TAF: